Time;durP1;ratioP1;P1;durP2;ratioP2;P2;SDS_P1;SDS_P2;PMS_P1;PMS_P2;Temp;Humidity;BMP_temperature;BMP_pressure;BME280_temperature;BME280_humidity;BME280_pressure;Samples;Min_cycle;Max_cycle;Signal;HPM_P1;HPM_P2
2023/12/28 00:01:56;;;;;;;3.50;3.30;;;10.60;99.90;;;;;;5032813;28;20526;-70
2023/12/28 00:04:21;;;;;;;3.90;3.60;;;10.50;99.90;;;;;;5033175;28;20183;-70
2023/12/28 00:06:47;;;;;;;4.00;3.67;;;10.60;99.90;;;;;;5032770;28;20630;-70
2023/12/28 00:09:12;;;;;;;3.97;3.67;;;10.60;99.90;;;;;;5033043;28;20658;-71
2023/12/28 00:11:39;;;;;;;3.70;3.50;;;10.60;99.90;;;;;;5038281;28;20178;-71
2023/12/28 00:14:05;;;;;;;3.60;3.40;;;10.60;99.90;;;;;;5052877;28;20179;-71
2023/12/28 00:16:34;;;;;;;4.20;3.47;;;10.60;99.90;;;;;;5052799;28;20204;-70
2023/12/28 00:19:01;;;;;;;3.47;3.27;;;10.60;99.90;;;;;;5053187;28;20206;-71
2023/12/28 00:21:27;;;;;;;4.50;4.10;;;10.60;99.90;;;;;;5052869;28;20192;-70
2023/12/28 00:23:53;;;;;;;4.30;4.00;;;10.60;99.90;;;;;;5052455;28;20701;-71
2023/12/28 00:26:21;;;;;;;4.00;3.57;;;10.60;99.90;;;;;;5052750;28;20195;-71
2023/12/28 00:28:47;;;;;;;3.83;3.60;;;10.50;99.90;;;;;;5052516;28;20244;-70
2023/12/28 00:31:12;;;;;;;3.90;3.60;;;10.50;99.90;;;;;;5052439;28;20194;-71
2023/12/28 00:33:38;;;;;;;5.70;5.30;;;10.50;99.90;;;;;;5037352;28;20184;-71
2023/12/28 00:36:04;;;;;;;3.80;3.50;;;10.40;99.90;;;;;;5050794;28;20205;-71
2023/12/28 00:38:29;;;;;;;4.03;3.50;;;10.40;99.90;;;;;;5052440;28;20171;-70
2023/12/28 00:40:55;;;;;;;4.37;3.77;;;10.30;99.90;;;;;;5033593;28;20188;-71
2023/12/28 00:43:20;;;;;;;4.10;3.60;;;10.20;99.90;;;;;;5032401;28;20612;-70
2023/12/28 00:45:46;;;;;;;4.20;3.80;;;10.20;99.90;;;;;;5032073;28;20199;-70
2023/12/28 00:48:12;;;;;;;4.17;3.87;;;10.10;99.90;;;;;;5032250;28;20187;-71
2023/12/28 00:50:37;;;;;;;6.63;3.90;;;10.10;99.90;;;;;;5032054;28;20184;-71
2023/12/28 00:53:03;;;;;;;3.40;3.20;;;10.10;99.90;;;;;;5032236;28;20471;-73
2023/12/28 00:55:29;;;;;;;3.60;3.33;;;10.20;99.90;;;;;;5048506;28;20203;-71
2023/12/28 00:57:54;;;;;;;3.57;3.30;;;10.20;99.90;;;;;;5051070;28;20170;-71
2023/12/28 01:00:20;;;;;;;3.57;3.27;;;10.20;99.90;;;;;;5034165;28;20669;-71
2023/12/28 01:02:46;;;;;;;4.17;3.87;;;10.20;99.90;;;;;;5049639;28;20174;-71
2023/12/28 01:05:13;;;;;;;4.30;3.87;;;10.20;99.90;;;;;;5031765;28;20571;-71
2023/12/28 01:07:39;;;;;;;3.80;3.50;;;10.20;99.90;;;;;;5051655;28;20181;-71
2023/12/28 01:10:05;;;;;;;4.50;4.23;;;10.30;99.90;;;;;;5051600;28;20175;-70
2023/12/28 01:12:30;;;;;;;3.60;3.40;;;10.20;99.90;;;;;;5051676;28;20230;-71
2023/12/28 01:14:56;;;;;;;4.97;3.93;;;10.30;99.90;;;;;;5046648;28;20227;-71
2023/12/28 01:17:22;;;;;;;3.90;3.70;;;10.20;99.90;;;;;;5032131;28;20242;-71
2023/12/28 01:19:47;;;;;;;4.10;3.80;;;10.30;99.90;;;;;;5031805;28;20176;-71
2023/12/28 01:22:13;;;;;;;5.23;3.63;;;10.30;99.90;;;;;;5030591;28;20633;-70
2023/12/28 01:24:38;;;;;;;3.83;3.57;;;10.30;99.90;;;;;;5031343;28;20258;-70
2023/12/28 01:27:04;;;;;;;4.27;3.97;;;10.30;99.90;;;;;;5031602;28;20352;-69
2023/12/28 01:29:30;;;;;;;4.13;3.50;;;10.30;99.90;;;;;;5034214;28;20240;-71
2023/12/28 01:31:55;;;;;;;5.33;3.80;;;10.40;99.90;;;;;;5051162;28;20178;-70
2023/12/28 01:34:21;;;;;;;3.83;3.63;;;10.30;99.90;;;;;;5051008;28;20646;-71
2023/12/28 01:36:47;;;;;;;4.10;3.80;;;10.30;99.90;;;;;;5050929;28;20206;-71
2023/12/28 01:39:12;;;;;;;4.37;4.07;;;10.40;99.90;;;;;;5051383;28;20524;-71
2023/12/28 01:41:38;;;;;;;3.80;3.60;;;10.40;99.90;;;;;;5051302;28;20178;-71
2023/12/28 01:44:04;;;;;;;4.13;3.70;;;10.40;99.90;;;;;;5051594;28;20170;-71
2023/12/28 01:46:29;;;;;;;4.40;3.80;;;10.40;99.90;;;;;;5051173;28;20203;-70
2023/12/28 01:48:55;;;;;;;3.90;3.60;;;10.40;99.90;;;;;;5040691;28;20191;-71
2023/12/28 01:51:23;;;;;;;3.90;3.60;;;10.40;99.90;;;;;;5031237;28;20195;-70
2023/12/28 01:53:50;;;;;;;4.10;3.80;;;10.40;99.90;;;;;;5031252;28;20606;-71
2023/12/28 01:56:17;;;;;;;3.93;3.63;;;10.30;99.90;;;;;;5030569;28;20191;-71
2023/12/28 01:58:45;;;;;;;4.20;3.90;;;10.30;99.90;;;;;;5030721;28;20631;-72
2023/12/28 02:01:11;;;;;;;4.20;3.90;;;10.30;99.90;;;;;;5031113;28;20655;-72
2023/12/28 02:03:37;;;;;;;4.10;3.80;;;10.20;99.90;;;;;;5031261;28;20167;-71
2023/12/28 02:06:03;;;;;;;4.23;3.70;;;10.10;99.90;;;;;;5030255;28;20196;-71
2023/12/28 02:08:29;;;;;;;3.90;3.70;;;10.10;99.90;;;;;;5030951;28;20167;-71
2023/12/28 02:10:57;;;;;;;4.17;3.83;;;10.10;99.90;;;;;;5030456;28;20205;-71
2023/12/28 02:13:24;;;;;;;4.40;4.00;;;10.10;99.90;;;;;;5030910;28;20669;-71
2023/12/28 02:15:57;;;;;;;4.40;4.00;;;10.10;99.90;;;;;;5013101;28;20210;-71
2023/12/28 02:18:30;;;;;;;4.83;4.40;;;10.10;99.90;;;;;;5031125;28;20175;-72
2023/12/28 02:20:57;;;;;;;4.63;4.23;;;10.10;99.90;;;;;;5030752;28;20297;-71
2023/12/28 02:23:23;;;;;;;4.77;4.17;;;10.00;99.90;;;;;;5030831;28;20279;-71
2023/12/28 02:25:49;;;;;;;5.27;4.50;;;10.10;99.90;;;;;;5031062;28;20278;-72
2023/12/28 02:28:15;;;;;;;4.60;4.20;;;10.00;99.90;;;;;;5030831;28;20194;-71
2023/12/28 02:30:41;;;;;;;4.20;4.00;;;10.00;99.90;;;;;;5030943;28;20179;-71
2023/12/28 02:33:33;;;;;;;4.60;4.30;;;9.90;99.90;;;;;;5030921;28;20167;-72
2023/12/28 02:36:05;;;;;;;6.63;4.10;;;9.90;99.90;;;;;;5030809;28;20245;-72
2023/12/28 02:38:33;;;;;;;4.40;4.00;;;9.90;99.90;;;;;;5030975;28;20168;-71
2023/12/28 02:40:59;;;;;;;5.80;4.37;;;9.90;99.90;;;;;;5030753;28;20171;-72
2023/12/28 02:43:25;;;;;;;4.80;4.40;;;9.90;99.90;;;;;;5033980;28;20656;-72
2023/12/28 02:45:51;;;;;;;4.00;3.60;;;9.90;99.90;;;;;;5048325;28;20199;-71
2023/12/28 02:48:17;;;;;;;4.63;4.17;;;9.90;99.90;;;;;;5030527;28;20183;-71
2023/12/28 02:50:43;;;;;;;4.10;3.80;;;9.90;99.90;;;;;;5030661;28;20345;-71
2023/12/28 02:53:09;;;;;;;4.33;3.90;;;9.90;99.90;;;;;;5030538;28;20211;-71
2023/12/28 02:55:34;;;;;;;5.53;4.67;;;9.90;99.90;;;;;;5031106;28;20199;-71
2023/12/28 02:58:00;;;;;;;4.20;3.90;;;10.00;99.90;;;;;;5050437;28;20206;-71
2023/12/28 03:00:27;;;;;;;4.93;4.50;;;10.00;99.90;;;;;;5050518;28;20175;-71
2023/12/28 03:02:52;;;;;;;4.77;4.30;;;10.00;99.90;;;;;;5050302;28;20175;-71
2023/12/28 03:05:18;;;;;;;4.60;4.20;;;10.00;99.90;;;;;;5048361;28;20202;-71
2023/12/28 03:07:45;;;;;;;4.63;4.23;;;10.00;99.90;;;;;;5050510;28;20249;-72
2023/12/28 03:10:11;;;;;;;5.83;4.70;;;10.00;99.90;;;;;;5050760;28;20163;-72
2023/12/28 03:12:37;;;;;;;5.70;3.77;;;10.00;99.90;;;;;;5050405;28;20186;-72
2023/12/28 03:15:04;;;;;;;6.23;4.03;;;10.00;99.90;;;;;;5050276;28;20549;-72
2023/12/28 03:17:30;;;;;;;4.60;4.00;;;10.00;99.90;;;;;;5050428;28;20292;-72
2023/12/28 03:19:56;;;;;;;4.30;4.00;;;10.00;99.90;;;;;;5042294;28;20187;-72
2023/12/28 03:22:22;;;;;;;4.23;4.00;;;10.00;99.90;;;;;;5032134;28;20191;-72
2023/12/28 03:24:48;;;;;;;5.37;3.80;;;10.00;99.90;;;;;;5046812;28;20199;-71
2023/12/28 03:27:14;;;;;;;4.23;3.93;;;10.00;99.90;;;;;;5053661;28;20717;-71
2023/12/28 03:29:41;;;;;;;5.67;3.80;;;10.00;99.90;;;;;;5053588;28;20555;-72
2023/12/28 03:32:07;;;;;;;4.67;4.20;;;10.00;99.90;;;;;;5035519;28;20189;-71
2023/12/28 03:34:33;;;;;;;5.20;4.20;;;10.00;99.90;;;;;;5053774;28;20198;-71
2023/12/28 03:36:59;;;;;;;4.63;4.17;;;10.00;99.90;;;;;;5053496;28;20628;-71
2023/12/28 03:39:25;;;;;;;4.30;3.93;;;10.00;99.90;;;;;;5053403;28;20254;-71
2023/12/28 03:41:52;;;;;;;4.43;3.90;;;10.00;99.90;;;;;;5053460;28;20171;-72
2023/12/28 03:44:20;;;;;;;6.07;3.77;;;10.00;99.90;;;;;;5053416;28;20190;-72
2023/12/28 03:46:46;;;;;;;4.40;4.00;;;10.00;99.90;;;;;;5053405;28;20178;-71
2023/12/28 03:49:14;;;;;;;4.20;3.90;;;10.00;99.90;;;;;;5053293;28;20249;-72
2023/12/28 03:51:40;;;;;;;5.13;4.13;;;10.00;99.90;;;;;;5046298;28;20282;-71
2023/12/28 03:54:05;;;;;;;6.17;4.03;;;10.00;99.90;;;;;;5033344;28;20203;-71
2023/12/28 03:56:32;;;;;;;4.33;4.03;;;10.00;99.90;;;;;;5033199;28;20261;-71
2023/12/28 03:58:58;;;;;;;4.30;4.00;;;10.00;99.90;;;;;;5015323;28;20705;-71
2023/12/28 04:01:24;;;;;;;3.97;3.77;;;10.00;99.90;;;;;;5033320;28;20214;-71
2023/12/28 04:03:49;;;;;;;3.77;3.57;;;10.00;99.90;;;;;;5033378;28;20206;-71
2023/12/28 04:06:16;;;;;;;3.90;3.53;;;9.90;99.90;;;;;;5038920;28;20668;-71
2023/12/28 04:08:42;;;;;;;4.00;3.70;;;10.00;99.90;;;;;;5053133;28;20175;-71
2023/12/28 04:11:08;;;;;;;4.23;3.73;;;10.00;99.90;;;;;;5053069;28;20305;-72
2023/12/28 04:13:33;;;;;;;6.73;3.93;;;10.00;99.90;;;;;;5052984;28;20261;-72
2023/12/28 04:15:59;;;;;;;4.47;3.80;;;10.00;99.90;;;;;;5052976;28;20203;-72
2023/12/28 04:18:24;;;;;;;4.83;3.73;;;10.10;99.90;;;;;;5053025;28;20348;-72
2023/12/28 04:20:50;;;;;;;4.10;3.90;;;10.10;99.90;;;;;;5048173;28;20254;-72
2023/12/28 04:23:16;;;;;;;4.33;3.90;;;10.00;99.90;;;;;;5032640;28;20182;-71
2023/12/28 04:25:41;;;;;;;3.80;3.50;;;10.00;99.90;;;;;;5032782;28;20257;-71
2023/12/28 04:28:07;;;;;;;4.80;3.83;;;9.90;99.90;;;;;;5032570;28;20180;-72
2023/12/28 04:30:33;;;;;;;4.27;3.97;;;9.80;99.90;;;;;;5032527;28;20547;-72
2023/12/28 04:33:00;;;;;;;4.37;4.03;;;9.70;99.90;;;;;;5032930;28;20182;-72
2023/12/28 04:35:26;;;;;;;4.10;3.80;;;9.60;99.90;;;;;;5050047;28;20298;-71
2023/12/28 04:37:51;;;;;;;5.70;4.50;;;9.50;99.90;;;;;;5052658;28;20254;-72
2023/12/28 04:40:17;;;;;;;4.10;3.80;;;9.40;99.90;;;;;;5052287;28;20547;-71
2023/12/28 04:42:43;;;;;;;4.40;4.10;;;9.30;99.90;;;;;;5052425;28;20654;-72
2023/12/28 04:45:10;;;;;;;4.50;4.20;;;9.20;99.90;;;;;;5034022;28;20201;-72
2023/12/28 04:47:36;;;;;;;4.37;3.97;;;9.20;99.90;;;;;;5052444;28;20201;-71
2023/12/28 04:50:03;;;;;;;4.40;4.00;;;9.10;99.90;;;;;;5035414;28;20266;-72
2023/12/28 04:52:28;;;;;;;3.80;3.60;;;9.10;99.90;;;;;;5032164;28;20180;-72
2023/12/28 04:54:54;;;;;;;4.37;4.07;;;9.00;99.90;;;;;;5045608;28;20584;-72
2023/12/28 04:57:19;;;;;;;6.17;4.27;;;9.00;99.90;;;;;;5051868;28;20567;-72
2023/12/28 04:59:45;;;;;;;4.57;4.17;;;8.90;99.90;;;;;;5052061;28;20222;-71
2023/12/28 05:02:10;;;;;;;4.67;4.10;;;8.80;99.90;;;;;;5041222;28;20172;-72
2023/12/28 05:04:39;;;;;;;4.70;4.30;;;8.80;99.90;;;;;;5031919;28;20249;-72
2023/12/28 05:07:04;;;;;;;4.13;3.90;;;8.70;99.90;;;;;;5031946;28;20208;-71
2023/12/28 05:09:31;;;;;;;5.20;4.20;;;8.70;99.90;;;;;;5032206;28;20663;-72
2023/12/28 05:11:56;;;;;;;4.47;4.10;;;8.70;99.90;;;;;;5014167;28;20191;-72
2023/12/28 05:14:22;;;;;;;5.00;3.80;;;8.60;99.90;;;;;;5031735;28;20549;-71
2023/12/28 05:16:47;;;;;;;8.27;4.43;;;8.50;99.90;;;;;;5022724;28;20218;-72
2023/12/28 05:19:13;;;;;;;4.53;4.17;;;8.50;99.90;;;;;;5051955;28;20175;-71
2023/12/28 05:21:39;;;;;;;6.13;4.40;;;8.40;99.90;;;;;;5051642;28;20662;-71
2023/12/28 05:24:05;;;;;;;4.60;4.30;;;8.30;99.90;;;;;;5050781;28;20205;-72
2023/12/28 05:26:30;;;;;;;5.03;4.53;;;8.30;99.90;;;;;;5050272;28;20205;-72
2023/12/28 05:28:56;;;;;;;4.47;4.17;;;8.30;99.90;;;;;;5048614;28;20188;-71
2023/12/28 05:31:22;;;;;;;4.70;3.90;;;8.20;99.90;;;;;;5031471;28;20179;-71
2023/12/28 05:33:47;;;;;;;5.00;4.30;;;8.30;99.90;;;;;;5031704;28;20171;-71
2023/12/28 05:36:13;;;;;;;4.13;3.90;;;8.30;99.90;;;;;;5031455;28;20222;-71
2023/12/28 05:38:38;;;;;;;6.97;4.07;;;8.40;99.90;;;;;;5031899;28;20179;-71
2023/12/28 05:41:04;;;;;;;4.40;4.00;;;8.60;99.90;;;;;;5031847;28;20182;-71
2023/12/28 05:43:30;;;;;;;5.23;4.30;;;8.80;99.90;;;;;;5032126;28;20229;-72
2023/12/28 05:45:55;;;;;;;4.50;4.00;;;9.00;99.90;;;;;;5050817;28;20198;-72
2023/12/28 05:48:21;;;;;;;4.17;3.87;;;9.30;99.90;;;;;;5051331;28;20182;-72
2023/12/28 05:50:46;;;;;;;6.43;4.27;;;9.50;99.90;;;;;;5051622;28;20701;-72
2023/12/28 05:53:13;;;;;;;6.90;4.27;;;9.70;99.90;;;;;;5051154;28;20266;-72
2023/12/28 05:55:43;;;;;;;7.13;3.70;;;9.80;99.90;;;;;;5051639;28;20294;-71
2023/12/28 05:58:09;;;;;;;5.53;4.23;;;10.00;99.90;;;;;;5038631;28;20682;-72
2023/12/28 06:00:36;;;;;;;6.67;3.70;;;10.10;99.90;;;;;;5031902;28;20655;-72
2023/12/28 06:03:02;;;;;;;5.07;3.50;;;10.30;99.90;;;;;;5031519;28;20199;-71
2023/12/28 06:05:28;;;;;;;4.47;3.73;;;10.30;99.90;;;;;;5030942;28;20237;-71
2023/12/28 06:07:54;;;;;;;4.27;3.70;;;10.40;99.90;;;;;;5031463;28;20679;-71
2023/12/28 06:10:19;;;;;;;4.97;4.13;;;10.40;99.90;;;;;;5031010;28;20171;-71
2023/12/28 06:12:45;;;;;;;3.70;3.40;;;10.40;99.90;;;;;;5031238;28;20638;-72
2023/12/28 06:15:11;;;;;;;4.23;3.67;;;10.50;99.90;;;;;;5030821;28;20188;-71
2023/12/28 06:17:37;;;;;;;5.63;3.30;;;10.50;99.90;;;;;;5048371;28;20648;-71
2023/12/28 06:20:02;;;;;;;3.70;3.40;;;10.50;99.90;;;;;;5051163;28;20175;-71
2023/12/28 06:22:28;;;;;;;4.20;3.40;;;10.50;99.90;;;;;;5050632;28;20194;-71
2023/12/28 06:24:55;;;;;;;4.23;3.77;;;10.50;99.90;;;;;;5049048;28;20221;-71
2023/12/28 06:27:21;;;;;;;4.63;3.37;;;10.50;99.90;;;;;;5050880;28;20205;-71
2023/12/28 06:29:46;;;;;;;3.67;3.37;;;10.50;99.90;;;;;;5051170;28;20252;-71
2023/12/28 06:32:12;;;;;;;3.47;3.23;;;10.30;99.90;;;;;;5050765;28;20183;-72
2023/12/28 06:34:37;;;;;;;6.17;3.63;;;10.30;99.90;;;;;;5050722;28;20198;-71
2023/12/28 06:37:03;;;;;;;6.17;4.30;;;10.30;99.90;;;;;;5050896;28;20241;-71
2023/12/28 06:39:29;;;;;;;5.07;3.63;;;10.30;99.90;;;;;;5049190;28;20256;-71
2023/12/28 06:41:54;;;;;;;3.93;3.63;;;10.20;99.90;;;;;;5051045;28;20216;-71
2023/12/28 06:44:20;;;;;;;4.43;4.03;;;10.30;99.90;;;;;;5050797;28;20171;-71
2023/12/28 06:46:45;;;;;;;4.10;3.80;;;10.30;99.90;;;;;;5050115;28;20183;-71
2023/12/28 06:49:11;;;;;;;4.20;3.80;;;10.40;99.90;;;;;;5050704;28;20643;-72
2023/12/28 06:51:37;;;;;;;5.23;3.73;;;10.40;99.90;;;;;;5022763;28;20183;-72
2023/12/28 06:54:03;;;;;;;4.00;3.60;;;10.40;99.90;;;;;;5031241;28;20176;-71
2023/12/28 06:56:29;;;;;;;4.73;3.70;;;10.40;99.90;;;;;;5032870;28;20686;-71
2023/12/28 06:58:54;;;;;;;4.10;3.70;;;10.30;99.90;;;;;;5034689;28;20195;-72
2023/12/28 07:01:20;;;;;;;4.83;3.90;;;10.20;99.90;;;;;;5034440;28;20167;-72
2023/12/28 07:03:46;;;;;;;6.93;3.73;;;10.20;99.90;;;;;;5034630;28;20171;-72
2023/12/28 07:06:13;;;;;;;3.80;3.50;;;10.10;99.90;;;;;;5042609;28;20352;-71
2023/12/28 07:08:38;;;;;;;3.50;3.20;;;10.00;99.90;;;;;;5054410;28;20222;-71
2023/12/28 07:11:04;;;;;;;4.53;3.53;;;9.90;99.90;;;;;;5054343;28;20180;-71
2023/12/28 07:13:30;;;;;;;4.13;3.80;;;9.90;99.90;;;;;;5054018;28;20186;-71
2023/12/28 07:15:55;;;;;;;3.83;3.50;;;9.90;99.90;;;;;;5054048;28;20199;-71
2023/12/28 07:18:21;;;;;;;3.67;3.47;;;9.90;99.90;;;;;;5052168;28;20175;-72
2023/12/28 07:20:46;;;;;;;7.07;3.83;;;10.00;99.90;;;;;;5035864;28;20206;-72
2023/12/28 07:23:13;;;;;;;3.90;3.53;;;10.00;99.90;;;;;;5035904;28;20674;-71
2023/12/28 07:25:38;;;;;;;5.53;3.70;;;10.10;99.90;;;;;;5033877;28;20188;-71
2023/12/28 07:28:04;;;;;;;8.07;3.67;;;10.10;99.90;;;;;;5034128;28;20163;-72
2023/12/28 07:30:30;;;;;;;4.00;3.60;;;10.20;99.90;;;;;;5033812;28;20655;-71
2023/12/28 07:32:55;;;;;;;6.83;4.10;;;10.20;99.90;;;;;;5034378;28;20539;-71
2023/12/28 07:35:21;;;;;;;3.80;3.50;;;10.30;99.90;;;;;;5051622;28;20244;-72
2023/12/28 07:37:47;;;;;;;3.57;3.27;;;10.30;99.90;;;;;;5053515;28;20198;-70
2023/12/28 07:40:13;;;;;;;4.20;3.80;;;10.40;99.90;;;;;;5053445;28;20244;-71
2023/12/28 07:42:39;;;;;;;4.80;3.50;;;10.40;99.90;;;;;;5053802;28;20174;-71
2023/12/28 07:45:05;;;;;;;3.80;3.50;;;10.40;99.90;;;;;;5053449;28;20558;-70
2023/12/28 07:47:30;;;;;;;5.73;3.50;;;10.40;99.90;;;;;;5053412;28;20171;-71
2023/12/28 07:49:56;;;;;;;4.80;3.10;;;10.40;99.90;;;;;;5033980;28;20206;-70
2023/12/28 07:52:22;;;;;;;8.47;3.40;;;10.40;99.90;;;;;;5033076;28;20175;-71
2023/12/28 07:54:48;;;;;;;4.53;3.40;;;10.40;99.90;;;;;;5032950;28;20729;-71
2023/12/28 07:57:13;;;;;;;4.57;3.80;;;10.50;99.90;;;;;;5032993;28;20199;-70
2023/12/28 07:59:39;;;;;;;3.40;3.20;;;10.50;99.90;;;;;;5033480;28;20213;-70
2023/12/28 08:02:05;;;;;;;3.83;3.40;;;10.50;99.90;;;;;;5033261;28;20167;-70
2023/12/28 08:04:31;;;;;;;6.60;3.63;;;10.40;99.90;;;;;;5034202;28;20198;-70
2023/12/28 08:06:58;;;;;;;4.30;3.37;;;10.40;99.90;;;;;;5032524;28;20226;-71
2023/12/28 08:09:24;;;;;;;4.03;3.50;;;10.40;99.90;;;;;;5033410;28;20536;-70
2023/12/28 08:11:49;;;;;;;5.47;3.43;;;10.40;99.90;;;;;;5033367;28;20262;-70
2023/12/28 08:14:15;;;;;;;6.27;3.33;;;10.40;99.90;;;;;;5032674;28;20570;-71
2023/12/28 08:16:41;;;;;;;5.83;3.53;;;10.40;99.90;;;;;;5026318;28;20207;-70
2023/12/28 08:19:06;;;;;;;5.37;3.40;;;10.40;99.90;;;;;;5053653;28;20174;-70
2023/12/28 08:21:32;;;;;;;6.93;3.20;;;10.40;99.90;;;;;;5052733;28;20591;-70
2023/12/28 08:23:57;;;;;;;3.80;3.47;;;10.40;99.90;;;;;;5053295;28;20163;-70
2023/12/28 08:26:23;;;;;;;6.80;3.57;;;10.40;99.90;;;;;;5052359;28;20194;-70
2023/12/28 08:28:48;;;;;;;10.23;3.67;;;10.40;99.90;;;;;;5050855;28;20232;-71
2023/12/28 08:31:14;;;;;;;6.60;3.77;;;10.40;99.90;;;;;;5032862;28;20176;-70
2023/12/28 08:33:40;;;;;;;5.13;3.57;;;10.40;99.90;;;;;;5032673;28;20179;-70
2023/12/28 08:36:07;;;;;;;5.17;3.20;;;10.40;99.90;;;;;;5032374;28;20222;-70
2023/12/28 08:38:33;;;;;;;5.20;3.43;;;10.40;99.90;;;;;;5032624;28;20207;-70
2023/12/28 08:40:58;;;;;;;8.20;3.87;;;10.40;99.90;;;;;;5032887;28;20196;-70
2023/12/28 08:43:24;;;;;;;3.63;3.33;;;10.40;99.90;;;;;;5040425;28;20171;-70
2023/12/28 08:45:49;;;;;;;5.37;3.43;;;10.40;99.90;;;;;;5038966;28;20269;-71
2023/12/28 08:48:15;;;;;;;8.27;3.87;;;10.40;99.90;;;;;;5034139;28;20218;-72
2023/12/28 08:50:41;;;;;;;6.03;3.60;;;10.50;99.90;;;;;;5052001;28;20181;-70
2023/12/28 08:53:06;;;;;;;4.63;3.70;;;10.50;99.90;;;;;;5052284;28;20512;-70
2023/12/28 08:55:33;;;;;;;3.90;3.60;;;10.60;99.90;;;;;;5051386;28;20781;-70
2023/12/28 08:57:59;;;;;;;8.57;4.30;;;10.60;99.90;;;;;;5052027;28;20642;-70
2023/12/28 09:00:25;;;;;;;6.40;3.50;;;10.60;99.90;;;;;;5052065;28;20205;-70
2023/12/28 09:02:51;;;;;;;4.60;3.47;;;10.50;99.90;;;;;;5050864;28;20174;-70
2023/12/28 09:05:17;;;;;;;9.33;4.13;;;10.50;99.90;;;;;;5050675;28;20293;-70
2023/12/28 09:07:43;;;;;;;5.90;3.50;;;10.50;99.90;;;;;;5051859;28;20174;-70
2023/12/28 09:10:12;;;;;;;6.03;3.33;;;10.50;99.90;;;;;;5052102;28;20237;-70
2023/12/28 09:12:38;;;;;;;4.87;3.30;;;10.50;99.90;;;;;;5047050;28;20651;-70
2023/12/28 09:15:05;;;;;;;4.87;3.60;;;10.50;99.90;;;;;;5031449;28;20195;-70
2023/12/28 09:17:30;;;;;;;6.60;3.57;;;10.50;99.90;;;;;;5031790;28;20207;-70
2023/12/28 09:19:58;;;;;;;5.50;3.70;;;10.60;99.90;;;;;;5031020;28;20217;-70
2023/12/28 09:22:23;;;;;;;6.47;3.87;;;10.60;99.90;;;;;;5031474;28;20543;-70
2023/12/28 09:24:49;;;;;;;5.27;3.47;;;10.70;99.90;;;;;;5031463;28;20213;-70
2023/12/28 09:27:15;;;;;;;4.20;3.60;;;10.80;99.90;;;;;;5034756;28;20286;-71
2023/12/28 09:29:40;;;;;;;8.07;3.30;;;10.90;99.90;;;;;;5040717;28;20325;-70
2023/12/28 09:32:06;;;;;;;6.97;3.60;;;11.10;99.90;;;;;;5031745;28;20268;-70
2023/12/28 09:34:32;;;;;;;5.40;3.47;;;11.30;99.90;;;;;;5042057;28;20202;-71
2023/12/28 09:36:58;;;;;;;5.27;3.90;;;11.60;99.90;;;;;;5032190;28;20207;-71
2023/12/28 09:39:23;;;;;;;4.20;3.17;;;11.90;99.90;;;;;;5036685;28;20210;-71
2023/12/28 09:42:02;;;;;;;8.40;3.50;;;12.20;99.90;;;;;;5051181;28;20179;-71
2023/12/28 09:44:30;;;;;;;6.97;3.23;;;12.70;99.90;;;;;;5051061;28;20527;-71
2023/12/28 09:46:57;;;;;;;4.90;3.00;;;13.20;99.90;;;;;;5051054;28;20604;-71
2023/12/28 09:49:23;;;;;;;4.73;2.93;;;13.60;99.90;;;;;;5051041;28;20175;-71
2023/12/28 09:51:49;;;;;;;9.13;3.10;;;13.90;99.90;;;;;;5051114;28;20262;-70
2023/12/28 09:54:15;;;;;;;6.03;2.90;;;14.20;99.90;;;;;;5050999;28;20232;-71
2023/12/28 09:56:41;;;;;;;6.73;2.90;;;14.30;99.90;;;;;;5049881;28;20666;-71
2023/12/28 09:59:07;;;;;;;7.30;3.40;;;14.60;99.90;;;;;;5051017;28;20261;-71
2023/12/28 10:01:34;;;;;;;7.20;3.20;;;14.70;99.90;;;;;;5050894;28;20646;-70
2023/12/28 10:04:02;;;;;;;7.37;3.00;;;14.60;99.90;;;;;;5050968;28;20199;-71
2023/12/28 10:06:28;;;;;;;7.93;3.03;;;14.50;99.90;;;;;;5050649;28;20202;-70
2023/12/28 10:08:55;;;;;;;5.30;2.70;;;14.40;99.90;;;;;;5051237;28;20175;-71
2023/12/28 10:11:21;;;;;;;5.37;3.20;;;14.30;99.90;;;;;;5049477;28;20232;-70
2023/12/28 10:13:49;;;;;;;4.80;3.00;;;14.20;99.90;;;;;;5050838;28;20273;-70
2023/12/28 10:16:16;;;;;;;6.80;3.30;;;14.10;99.90;;;;;;5050696;28;20218;-71
2023/12/28 10:18:45;;;;;;;7.90;3.03;;;14.00;99.90;;;;;;5049022;28;20178;-70
2023/12/28 10:21:12;;;;;;;5.67;3.10;;;14.00;99.90;;;;;;5046316;28;20665;-70
2023/12/28 10:23:40;;;;;;;7.77;3.47;;;14.00;99.90;;;;;;5048219;28;20186;-71
2023/12/28 10:26:06;;;;;;;6.93;3.10;;;13.90;99.90;;;;;;5044574;28;20572;-70
2023/12/28 10:28:38;;;;;;;7.07;3.57;;;13.90;99.90;;;;;;5045737;28;20235;-70
2023/12/28 10:31:04;;;;;;;8.00;3.00;;;14.00;99.90;;;;;;5035479;28;20175;-70
2023/12/28 10:33:35;;;;;;;6.97;3.43;;;13.90;99.90;;;;;;5040087;28;20187;-70
2023/12/28 10:36:06;;;;;;;7.20;3.17;;;13.90;99.90;;;;;;5040212;28;20211;-71
2023/12/28 10:38:36;;;;;;;8.30;3.00;;;13.70;99.90;;;;;;5035801;28;20262;-71
2023/12/28 10:41:06;;;;;;;5.27;3.00;;;13.80;99.90;;;;;;5054502;28;20751;-69
2023/12/28 10:43:45;;;;;;;5.77;3.63;;;13.90;99.90;;;;;;5054419;28;20171;-69
2023/12/28 10:46:29;;;;;;;5.83;2.83;;;13.80;99.90;;;;;;5054404;28;20202;-70
2023/12/28 10:49:00;;;;;;;5.67;2.80;;;13.80;99.90;;;;;;5054516;28;20258;-71
2023/12/28 10:51:29;;;;;;;9.67;3.40;;;14.00;99.90;;;;;;5047212;28;20471;-69
2023/12/28 10:54:06;;;;;;;7.50;3.17;;;14.00;99.90;;;;;;5033715;28;20199;-70
2023/12/28 10:56:47;;;;;;;8.00;3.60;;;14.20;99.90;;;;;;5033955;28;20563;-69
2023/12/28 10:59:32;;;;;;;6.47;2.80;;;14.30;99.90;;;;;;5034174;28;20176;-69
2023/12/28 11:02:00;;;;;;;4.87;3.20;;;14.30;99.90;;;;;;5017391;28;20459;-69
2023/12/28 11:04:44;;;;;;;6.23;3.10;;;14.40;99.90;;;;;;5038754;28;20187;-69
2023/12/28 11:07:12;;;;;;;4.50;3.10;;;14.30;99.90;;;;;;5050592;28;20353;-70
2023/12/28 11:09:41;;;;;;;7.53;3.10;;;14.30;99.90;;;;;;5053723;28;20186;-69
2023/12/28 11:12:10;;;;;;;5.57;2.90;;;14.20;99.90;;;;;;5027131;28;20235;-71
2023/12/28 11:14:39;;;;;;;8.03;3.17;;;14.20;99.90;;;;;;5033643;28;20210;-70
2023/12/28 11:17:05;;;;;;;11.77;3.20;;;14.30;99.90;;;;;;5016754;28;20273;-70
2023/12/28 11:19:31;;;;;;;7.53;3.10;;;14.20;99.90;;;;;;5042321;28;20678;-70
2023/12/28 11:21:59;;;;;;;4.83;3.00;;;14.10;99.90;;;;;;5049725;28;20194;-70
2023/12/28 11:24:27;;;;;;;8.97;3.00;;;14.10;99.90;;;;;;5048091;28;20553;-70
2023/12/28 11:26:57;;;;;;;5.40;3.00;;;14.00;99.90;;;;;;5047946;28;20233;-70
2023/12/28 11:29:23;;;;;;;7.77;3.20;;;14.10;99.90;;;;;;5043476;28;20182;-70
2023/12/28 11:31:53;;;;;;;6.53;3.30;;;14.20;99.90;;;;;;5040553;28;20180;-70
2023/12/28 11:34:24;;;;;;;8.63;3.37;;;14.20;99.90;;;;;;5036469;28;20245;-70
2023/12/28 11:36:54;;;;;;;3.47;2.87;;;14.20;99.90;;;;;;5051974;28;20206;-69
2023/12/28 11:39:30;;;;;;;4.20;2.93;;;14.30;99.90;;;;;;5042622;28;20178;-70
2023/12/28 11:42:04;;;;;;;5.10;4.37;;;14.40;99.90;;;;;;5052693;28;20639;-69
2023/12/28 11:44:51;;;;;;;7.13;3.13;;;14.60;99.90;;;;;;5035222;28;20266;-69
2023/12/28 11:47:21;;;;;;;10.73;3.13;;;14.60;99.90;;;;;;5041469;28;20309;-70
2023/12/28 11:49:51;;;;;;;5.27;3.03;;;14.70;99.90;;;;;;5052093;28;20232;-70
2023/12/28 11:52:30;;;;;;;8.03;3.50;;;14.80;99.90;;;;;;5048771;28;20463;-69
2023/12/28 11:54:57;;;;;;;8.07;3.23;;;14.70;99.90;;;;;;5048021;28;20924;-70
2023/12/28 11:57:23;;;;;;;5.57;3.10;;;14.50;99.90;;;;;;5034343;28;20633;-70
2023/12/28 11:59:53;;;;;;;7.37;3.17;;;14.50;99.90;;;;;;5042137;28;20194;-69
2023/12/28 12:02:20;;;;;;;5.93;3.37;;;14.50;99.90;;;;;;5042384;28;20197;-69
2023/12/28 12:04:46;;;;;;;4.60;3.20;;;14.30;99.90;;;;;;5049741;28;20202;-70
2023/12/28 12:07:11;;;;;;;8.53;3.50;;;14.30;99.90;;;;;;5039886;28;20739;-69
2023/12/28 12:09:37;;;;;;;9.80;3.20;;;14.10;99.90;;;;;;5041112;28;20183;-70
2023/12/28 12:12:03;;;;;;;4.93;3.60;;;14.00;99.90;;;;;;5047914;28;20187;-69
2023/12/28 12:14:30;;;;;;;5.40;3.27;;;14.00;99.90;;;;;;5033741;28;20237;-71
2023/12/28 12:16:56;;;;;;;4.40;3.00;;;14.00;99.90;;;;;;5026295;28;20689;-69
2023/12/28 12:19:25;;;;;;;8.77;3.50;;;14.00;99.90;;;;;;5043196;28;20183;-69
2023/12/28 12:21:58;;;;;;;5.67;3.00;;;13.90;99.90;;;;;;5042941;28;20218;-70
2023/12/28 12:24:23;;;;;;;7.77;3.20;;;13.90;99.90;;;;;;5047512;28;20609;-69
2023/12/28 12:26:51;;;;;;;7.93;3.00;;;14.00;99.90;;;;;;5039809;28;20265;-69
2023/12/28 12:29:17;;;;;;;8.17;4.13;;;14.00;99.90;;;;;;5041215;28;20179;-69
2023/12/28 12:31:44;;;;;;;6.40;3.17;;;14.00;99.90;;;;;;5046750;28;20569;-70
2023/12/28 12:34:10;;;;;;;6.93;3.10;;;14.00;99.90;;;;;;5017788;28;20215;-69
2023/12/28 12:36:37;;;;;;;9.07;3.37;;;13.80;99.90;;;;;;5048417;28;20283;-70
2023/12/28 12:39:06;;;;;;;7.27;3.93;;;13.80;99.90;;;;;;5038878;28;20535;-69
2023/12/28 12:41:35;;;;;;;10.30;3.57;;;13.80;99.90;;;;;;5044902;28;20630;-69
2023/12/28 12:44:01;;;;;;;6.43;4.30;;;13.80;99.90;;;;;;5041911;28;20171;-69
2023/12/28 12:46:27;;;;;;;9.23;3.13;;;13.70;99.90;;;;;;5046307;28;20204;-69